sensor_id;sensor_type;location;lat;lon;timestamp;pressure;altitude;pressure_sealevel;temperature
42119;BMP280;27783;42.782;23.274;2023-05-07T00:01:14;95739.97;;;8.22
42119;BMP280;27783;42.782;23.274;2023-05-07T00:03:40;95732.91;;;7.94
42119;BMP280;27783;42.782;23.274;2023-05-07T00:06:07;95737.03;;;7.95
42119;BMP280;27783;42.782;23.274;2023-05-07T00:08:34;95735.69;;;8.08
42119;BMP280;27783;42.782;23.274;2023-05-07T00:11:01;95728.41;;;7.95
42119;BMP280;27783;42.782;23.274;2023-05-07T00:13:28;95734.69;;;7.87
42119;BMP280;27783;42.782;23.274;2023-05-07T00:15:57;95732.47;;;7.57
42119;BMP280;27783;42.782;23.274;2023-05-07T00:18:26;95733.50;;;7.49
42119;BMP280;27783;42.782;23.274;2023-05-07T00:20:51;95734.16;;;7.71
42119;BMP280;27783;42.782;23.274;2023-05-07T00:23:18;95736.41;;;7.73
42119;BMP280;27783;42.782;23.274;2023-05-07T00:25:46;95732.22;;;7.68
42119;BMP280;27783;42.782;23.274;2023-05-07T00:30:59;95736.28;;;7.63
42119;BMP280;27783;42.782;23.274;2023-05-07T00:33:24;95737.44;;;7.33
42119;BMP280;27783;42.782;23.274;2023-05-07T00:35:52;95744.88;;;7.31
42119;BMP280;27783;42.782;23.274;2023-05-07T00:38:20;95734.03;;;7.32
42119;BMP280;27783;42.782;23.274;2023-05-07T00:40:45;95736.47;;;7.48
42119;BMP280;27783;42.782;23.274;2023-05-07T00:43:12;95742.34;;;7.38
42119;BMP280;27783;42.782;23.274;2023-05-07T00:45:50;95740.94;;;7.44
42119;BMP280;27783;42.782;23.274;2023-05-07T00:48:16;95737.34;;;7.58
42119;BMP280;27783;42.782;23.274;2023-05-07T00:50:42;95744.25;;;7.69
42119;BMP280;27783;42.782;23.274;2023-05-07T00:53:10;95746.91;;;7.73
42119;BMP280;27783;42.782;23.274;2023-05-07T00:55:36;95746.94;;;7.76
42119;BMP280;27783;42.782;23.274;2023-05-07T00:58:10;95737.88;;;7.70
42119;BMP280;27783;42.782;23.274;2023-05-07T01:00:37;95727.66;;;7.62
42119;BMP280;27783;42.782;23.274;2023-05-07T01:03:05;95743.31;;;7.55
42119;BMP280;27783;42.782;23.274;2023-05-07T01:05:30;95741.16;;;7.64
42119;BMP280;27783;42.782;23.274;2023-05-07T01:07:56;95750.97;;;7.67
42119;BMP280;27783;42.782;23.274;2023-05-07T01:10:24;95746.41;;;7.64
42119;BMP280;27783;42.782;23.274;2023-05-07T01:12:59;95743.41;;;7.62
42119;BMP280;27783;42.782;23.274;2023-05-07T01:15:25;95747.53;;;7.63
42119;BMP280;27783;42.782;23.274;2023-05-07T01:17:51;95753.63;;;7.42
42119;BMP280;27783;42.782;23.274;2023-05-07T01:20:24;95748.81;;;7.44
42119;BMP280;27783;42.782;23.274;2023-05-07T01:22:50;95748.63;;;7.30
42119;BMP280;27783;42.782;23.274;2023-05-07T01:25:16;95751.16;;;7.23
42119;BMP280;27783;42.782;23.274;2023-05-07T01:27:44;95757.72;;;7.11
42119;BMP280;27783;42.782;23.274;2023-05-07T01:30:16;95751.75;;;6.88
42119;BMP280;27783;42.782;23.274;2023-05-07T01:32:52;95754.97;;;6.79
42119;BMP280;27783;42.782;23.274;2023-05-07T01:35:20;95754.69;;;6.83
42119;BMP280;27783;42.782;23.274;2023-05-07T01:38:01;95751.41;;;7.15
42119;BMP280;27783;42.782;23.274;2023-05-07T01:40:30;95744.97;;;7.09
42119;BMP280;27783;42.782;23.274;2023-05-07T01:42:57;95747.94;;;7.08
42119;BMP280;27783;42.782;23.274;2023-05-07T01:45:25;95738.09;;;7.01
42119;BMP280;27783;42.782;23.274;2023-05-07T01:47:51;95730.94;;;7.24
42119;BMP280;27783;42.782;23.274;2023-05-07T01:50:23;95742.25;;;7.31
42119;BMP280;27783;42.782;23.274;2023-05-07T01:52:50;95730.94;;;7.24
42119;BMP280;27783;42.782;23.274;2023-05-07T01:55:17;95731.03;;;7.31
42119;BMP280;27783;42.782;23.274;2023-05-07T01:57:45;95739.34;;;7.36
42119;BMP280;27783;42.782;23.274;2023-05-07T02:00:12;95728.78;;;7.32
42119;BMP280;27783;42.782;23.274;2023-05-07T02:02:37;95734.44;;;7.34
42119;BMP280;27783;42.782;23.274;2023-05-07T02:05:06;95734.22;;;6.67
42119;BMP280;27783;42.782;23.274;2023-05-07T02:07:32;95743.09;;;6.16
42119;BMP280;27783;42.782;23.274;2023-05-07T02:09:59;95724.78;;;6.16
42119;BMP280;27783;42.782;23.274;2023-05-07T02:12:26;95730.97;;;6.30
42119;BMP280;27783;42.782;23.274;2023-05-07T02:14:52;95725.22;;;6.43
42119;BMP280;27783;42.782;23.274;2023-05-07T02:17:20;95717.19;;;6.54
42119;BMP280;27783;42.782;23.274;2023-05-07T02:19:48;95728.38;;;6.51
42119;BMP280;27783;42.782;23.274;2023-05-07T02:22:13;95718.06;;;6.62
42119;BMP280;27783;42.782;23.274;2023-05-07T02:24:46;95723.00;;;6.66
42119;BMP280;27783;42.782;23.274;2023-05-07T02:27:11;95722.16;;;6.84
42119;BMP280;27783;42.782;23.274;2023-05-07T02:29:37;95717.69;;;6.38
42119;BMP280;27783;42.782;23.274;2023-05-07T02:32:04;95725.06;;;6.80
42119;BMP280;27783;42.782;23.274;2023-05-07T02:34:36;95720.41;;;6.95
42119;BMP280;27783;42.782;23.274;2023-05-07T02:37:12;95719.22;;;7.18
42119;BMP280;27783;42.782;23.274;2023-05-07T02:39:37;95717.31;;;7.15
42119;BMP280;27783;42.782;23.274;2023-05-07T02:42:08;95715.88;;;7.17
42119;BMP280;27783;42.782;23.274;2023-05-07T02:44:36;95713.81;;;7.33
42119;BMP280;27783;42.782;23.274;2023-05-07T02:47:02;95717.16;;;7.30
42119;BMP280;27783;42.782;23.274;2023-05-07T02:49:30;95725.41;;;6.09
42119;BMP280;27783;42.782;23.274;2023-05-07T02:51:55;95728.56;;;5.78
42119;BMP280;27783;42.782;23.274;2023-05-07T02:54:20;95731.56;;;5.61
42119;BMP280;27783;42.782;23.274;2023-05-07T02:56:50;95730.16;;;6.04
42119;BMP280;27783;42.782;23.274;2023-05-07T02:59:16;95729.78;;;6.02
42119;BMP280;27783;42.782;23.274;2023-05-07T03:01:42;95738.38;;;6.24
42119;BMP280;27783;42.782;23.274;2023-05-07T03:04:11;95738.78;;;6.26
42119;BMP280;27783;42.782;23.274;2023-05-07T03:06:37;95724.69;;;6.56
42119;BMP280;27783;42.782;23.274;2023-05-07T03:09:02;95734.25;;;6.45
42119;BMP280;27783;42.782;23.274;2023-05-07T03:11:43;95744.66;;;6.42
42119;BMP280;27783;42.782;23.274;2023-05-07T03:14:08;95736.28;;;6.33
42119;BMP280;27783;42.782;23.274;2023-05-07T03:16:34;95743.97;;;6.45
42119;BMP280;27783;42.782;23.274;2023-05-07T03:19:05;95749.19;;;6.45
42119;BMP280;27783;42.782;23.274;2023-05-07T03:21:34;95745.88;;;6.48
42119;BMP280;27783;42.782;23.274;2023-05-07T03:24:00;95746.28;;;6.49
42119;BMP280;27783;42.782;23.274;2023-05-07T03:26:26;95753.84;;;6.32
42119;BMP280;27783;42.782;23.274;2023-05-07T03:28:52;95752.88;;;6.18
42119;BMP280;27783;42.782;23.274;2023-05-07T03:31:17;95754.84;;;6.25
42119;BMP280;27783;42.782;23.274;2023-05-07T03:33:54;95761.50;;;6.22
42119;BMP280;27783;42.782;23.274;2023-05-07T03:36:20;95758.16;;;6.22
42119;BMP280;27783;42.782;23.274;2023-05-07T03:38:47;95758.16;;;6.22
42119;BMP280;27783;42.782;23.274;2023-05-07T03:41:13;95754.34;;;6.19
42119;BMP280;27783;42.782;23.274;2023-05-07T03:43:39;95761.59;;;5.85
42119;BMP280;27783;42.782;23.274;2023-05-07T03:46:08;95754.50;;;5.86
42119;BMP280;27783;42.782;23.274;2023-05-07T03:48:35;95763.84;;;5.87
42119;BMP280;27783;42.782;23.274;2023-05-07T03:51:01;95769.06;;;6.05
42119;BMP280;27783;42.782;23.274;2023-05-07T03:53:28;95771.31;;;6.25
42119;BMP280;27783;42.782;23.274;2023-05-07T03:55:55;95782.63;;;6.11
42119;BMP280;27783;42.782;23.274;2023-05-07T03:58:21;95778.97;;;6.37
42119;BMP280;27783;42.782;23.274;2023-05-07T04:00:48;95776.28;;;6.55
42119;BMP280;27783;42.782;23.274;2023-05-07T04:03:13;95778.75;;;6.67
42119;BMP280;27783;42.782;23.274;2023-05-07T04:05:39;95777.53;;;6.61
42119;BMP280;27783;42.782;23.274;2023-05-07T04:08:07;95778.53;;;6.79
42119;BMP280;27783;42.782;23.274;2023-05-07T04:10:32;95779.41;;;7.08
42119;BMP280;27783;42.782;23.274;2023-05-07T04:12:57;95791.38;;;7.34
42119;BMP280;27783;42.782;23.274;2023-05-07T04:15:23;95785.22;;;7.52
42119;BMP280;27783;42.782;23.274;2023-05-07T04:17:50;95796.97;;;7.61
42119;BMP280;27783;42.782;23.274;2023-05-07T04:20:17;95798.47;;;7.91
42119;BMP280;27783;42.782;23.274;2023-05-07T04:22:42;95811.50;;;8.13
42119;BMP280;27783;42.782;23.274;2023-05-07T04:25:09;95797.94;;;8.07
42119;BMP280;27783;42.782;23.274;2023-05-07T04:27:35;95801.66;;;8.38
42119;BMP280;27783;42.782;23.274;2023-05-07T04:30:02;95805.94;;;8.56
42119;BMP280;27783;42.782;23.274;2023-05-07T04:32:30;95804.25;;;8.77
42119;BMP280;27783;42.782;23.274;2023-05-07T04:34:57;95810.41;;;8.91
42119;BMP280;27783;42.782;23.274;2023-05-07T04:37:22;95803.53;;;8.80
42119;BMP280;27783;42.782;23.274;2023-05-07T04:39:50;95813.16;;;9.05
42119;BMP280;27783;42.782;23.274;2023-05-07T04:42:17;95811.16;;;9.41
42119;BMP280;27783;42.782;23.274;2023-05-07T04:44:44;95806.75;;;9.65
42119;BMP280;27783;42.782;23.274;2023-05-07T04:47:11;95806.63;;;10.14
42119;BMP280;27783;42.782;23.274;2023-05-07T04:49:40;95807.84;;;10.44
42119;BMP280;27783;42.782;23.274;2023-05-07T04:52:06;95807.81;;;10.23
42119;BMP280;27783;42.782;23.274;2023-05-07T04:54:34;95804.09;;;10.48
42119;BMP280;27783;42.782;23.274;2023-05-07T04:57:11;95802.25;;;11.06
42119;BMP280;27783;42.782;23.274;2023-05-07T04:59:38;95805.28;;;10.84
42119;BMP280;27783;42.782;23.274;2023-05-07T05:02:03;95804.91;;;11.10
42119;BMP280;27783;42.782;23.274;2023-05-07T05:04:31;95807.19;;;11.42
42119;BMP280;27783;42.782;23.274;2023-05-07T05:06:58;95800.38;;;11.58
42119;BMP280;27783;42.782;23.274;2023-05-07T05:09:24;95800.72;;;11.56
42119;BMP280;27783;42.782;23.274;2023-05-07T05:11:51;95808.56;;;11.97
42119;BMP280;27783;42.782;23.274;2023-05-07T05:14:25;95805.28;;;12.53
42119;BMP280;27783;42.782;23.274;2023-05-07T05:16:53;95798.28;;;12.19
42119;BMP280;27783;42.782;23.274;2023-05-07T05:19:18;95809.03;;;12.59
42119;BMP280;27783;42.782;23.274;2023-05-07T05:21:44;95800.38;;;13.08
42119;BMP280;27783;42.782;23.274;2023-05-07T05:24:12;95802.81;;;12.85
42119;BMP280;27783;42.782;23.274;2023-05-07T05:26:38;95801.47;;;13.14
42119;BMP280;27783;42.782;23.274;2023-05-07T05:29:04;95796.91;;;13.57
42119;BMP280;27783;42.782;23.274;2023-05-07T05:31:32;95799.44;;;13.31
42119;BMP280;27783;42.782;23.274;2023-05-07T05:34:14;95807.56;;;13.50
42119;BMP280;27783;42.782;23.274;2023-05-07T05:37:05;95795.91;;;13.83
42119;BMP280;27783;42.782;23.274;2023-05-07T05:39:33;95802.66;;;13.91
42119;BMP280;27783;42.782;23.274;2023-05-07T05:41:59;95807.13;;;13.98
42119;BMP280;27783;42.782;23.274;2023-05-07T05:44:25;95807.09;;;14.59
42119;BMP280;27783;42.782;23.274;2023-05-07T05:46:51;95806.00;;;14.83
42119;BMP280;27783;42.782;23.274;2023-05-07T05:49:17;95800.63;;;14.89
42119;BMP280;27783;42.782;23.274;2023-05-07T05:51:44;95805.53;;;14.62
42119;BMP280;27783;42.782;23.274;2023-05-07T05:54:10;95810.94;;;15.10
42119;BMP280;27783;42.782;23.274;2023-05-07T05:56:38;95792.09;;;15.68
42119;BMP280;27783;42.782;23.274;2023-05-07T05:59:03;95811.63;;;15.14
42119;BMP280;27783;42.782;23.274;2023-05-07T06:01:30;95802.44;;;15.18
42119;BMP280;27783;42.782;23.274;2023-05-07T06:03:56;95797.09;;;15.66
42119;BMP280;27783;42.782;23.274;2023-05-07T06:06:24;95794.50;;;15.82
42119;BMP280;27783;42.782;23.274;2023-05-07T06:08:49;95797.16;;;15.82
42119;BMP280;27783;42.782;23.274;2023-05-07T06:11:17;95789.88;;;15.85
42119;BMP280;27783;42.782;23.274;2023-05-07T06:13:47;95796.16;;;15.76
42119;BMP280;27783;42.782;23.274;2023-05-07T06:16:14;95791.13;;;16.72
42119;BMP280;27783;42.782;23.274;2023-05-07T06:18:39;95792.03;;;15.94
42119;BMP280;27783;42.782;23.274;2023-05-07T06:21:06;95797.16;;;16.76
42119;BMP280;27783;42.782;23.274;2023-05-07T06:23:32;95798.56;;;16.46
42119;BMP280;27783;42.782;23.274;2023-05-07T06:25:59;95794.06;;;16.62
42119;BMP280;27783;42.782;23.274;2023-05-07T06:28:25;95776.66;;;17.54
42119;BMP280;27783;42.782;23.274;2023-05-07T06:30:51;95784.94;;;16.79
42119;BMP280;27783;42.782;23.274;2023-05-07T06:33:19;95783.00;;;17.14
42119;BMP280;27783;42.782;23.274;2023-05-07T06:35:45;95774.97;;;17.60
42119;BMP280;27783;42.782;23.274;2023-05-07T06:38:13;95775.25;;;17.78
42119;BMP280;27783;42.782;23.274;2023-05-07T06:40:51;95770.63;;;18.49
42119;BMP280;27783;42.782;23.274;2023-05-07T06:43:16;95762.81;;;17.59
42119;BMP280;27783;42.782;23.274;2023-05-07T06:45:43;95754.31;;;17.80
42119;BMP280;27783;42.782;23.274;2023-05-07T06:48:09;95757.31;;;19.10
42119;BMP280;27783;42.782;23.274;2023-05-07T06:50:35;95756.13;;;19.11
42119;BMP280;27783;42.782;23.274;2023-05-07T06:53:01;95762.69;;;18.34
42119;BMP280;27783;42.782;23.274;2023-05-07T06:55:27;95764.41;;;18.00
42119;BMP280;27783;42.782;23.274;2023-05-07T06:57:53;95756.59;;;17.78
42119;BMP280;27783;42.782;23.274;2023-05-07T07:00:20;95751.00;;;19.28
42119;BMP280;27783;42.782;23.274;2023-05-07T07:02:47;95747.00;;;20.32
42119;BMP280;27783;42.782;23.274;2023-05-07T07:05:13;95752.50;;;18.69
42119;BMP280;27783;42.782;23.274;2023-05-07T07:07:40;95758.44;;;18.60
42119;BMP280;27783;42.782;23.274;2023-05-07T07:10:07;95748.22;;;20.19
42119;BMP280;27783;42.782;23.274;2023-05-07T07:12:34;95748.50;;;19.34
42119;BMP280;27783;42.782;23.274;2023-05-07T07:15:00;95748.38;;;18.80
42119;BMP280;27783;42.782;23.274;2023-05-07T07:17:26;95748.06;;;19.47
42119;BMP280;27783;42.782;23.274;2023-05-07T07:20:02;95746.19;;;20.43
42119;BMP280;27783;42.782;23.274;2023-05-07T07:22:29;95751.34;;;18.82
42119;BMP280;27783;42.782;23.274;2023-05-07T07:24:54;95749.63;;;18.87
42119;BMP280;27783;42.782;23.274;2023-05-07T07:27:20;95733.69;;;20.70
42119;BMP280;27783;42.782;23.274;2023-05-07T07:29:46;95745.66;;;19.28
42119;BMP280;27783;42.782;23.274;2023-05-07T07:32:12;95742.53;;;19.42
42119;BMP280;27783;42.782;23.274;2023-05-07T07:34:40;95741.69;;;19.20
42119;BMP280;27783;42.782;23.274;2023-05-07T07:37:06;95740.41;;;19.70
42119;BMP280;27783;42.782;23.274;2023-05-07T07:39:39;95742.09;;;20.30
42119;BMP280;27783;42.782;23.274;2023-05-07T07:42:06;95743.47;;;20.94
42119;BMP280;27783;42.782;23.274;2023-05-07T07:44:39;95746.75;;;20.98
42119;BMP280;27783;42.782;23.274;2023-05-07T07:47:04;95742.03;;;21.49
42119;BMP280;27783;42.782;23.274;2023-05-07T07:49:34;95741.81;;;21.26
42119;BMP280;27783;42.782;23.274;2023-05-07T07:52:03;95744.28;;;20.44
42119;BMP280;27783;42.782;23.274;2023-05-07T07:54:32;95739.66;;;21.77
42119;BMP280;27783;42.782;23.274;2023-05-07T07:56:57;95727.53;;;22.42
42119;BMP280;27783;42.782;23.274;2023-05-07T07:59:23;95737.75;;;21.95
42119;BMP280;27783;42.782;23.274;2023-05-07T08:01:48;95727.66;;;21.34
42119;BMP280;27783;42.782;23.274;2023-05-07T08:04:15;95731.25;;;21.31
42119;BMP280;27783;42.782;23.274;2023-05-07T08:06:40;95731.03;;;22.08
42119;BMP280;27783;42.782;23.274;2023-05-07T08:09:06;95718.25;;;23.10
42119;BMP280;27783;42.782;23.274;2023-05-07T08:11:31;95722.38;;;22.21
42119;BMP280;27783;42.782;23.274;2023-05-07T08:13:58;95727.91;;;21.83
42119;BMP280;27783;42.782;23.274;2023-05-07T08:16:23;95718.78;;;22.16
42119;BMP280;27783;42.782;23.274;2023-05-07T08:18:49;95719.28;;;22.81
42119;BMP280;27783;42.782;23.274;2023-05-07T08:21:14;95715.81;;;22.31
42119;BMP280;27783;42.782;23.274;2023-05-07T08:23:40;95706.63;;;23.04
42119;BMP280;27783;42.782;23.274;2023-05-07T08:26:08;95706.75;;;22.78
42119;BMP280;27783;42.782;23.274;2023-05-07T08:28:34;95705.22;;;23.17
42119;BMP280;27783;42.782;23.274;2023-05-07T08:31:00;95700.06;;;23.28
42119;BMP280;27783;42.782;23.274;2023-05-07T08:33:26;95694.66;;;23.05
42119;BMP280;27783;42.782;23.274;2023-05-07T08:35:51;95695.97;;;23.09
42119;BMP280;27783;42.782;23.274;2023-05-07T08:38:20;95687.78;;;23.36
42119;BMP280;27783;42.782;23.274;2023-05-07T08:40:45;95701.00;;;22.44
42119;BMP280;27783;42.782;23.274;2023-05-07T08:43:13;95699.59;;;22.66
42119;BMP280;27783;42.782;23.274;2023-05-07T08:45:40;95693.16;;;23.36
42119;BMP280;27783;42.782;23.274;2023-05-07T08:48:15;95695.50;;;23.65
42119;BMP280;27783;42.782;23.274;2023-05-07T08:50:41;95682.63;;;24.34
42119;BMP280;27783;42.782;23.274;2023-05-07T08:53:06;95675.31;;;25.24
42119;BMP280;27783;42.782;23.274;2023-05-07T08:55:32;95673.22;;;25.73
42119;BMP280;27783;42.782;23.274;2023-05-07T08:58:00;95671.75;;;24.85
42119;BMP280;27783;42.782;23.274;2023-05-07T09:00:26;95670.72;;;24.83
42119;BMP280;27783;42.782;23.274;2023-05-07T09:02:52;95667.22;;;24.35
42119;BMP280;27783;42.782;23.274;2023-05-07T09:05:18;95661.69;;;25.53
42119;BMP280;27783;42.782;23.274;2023-05-07T09:07:43;95664.97;;;24.47
42119;BMP280;27783;42.782;23.274;2023-05-07T09:10:10;95668.13;;;24.88
42119;BMP280;27783;42.782;23.274;2023-05-07T09:12:37;95658.84;;;24.75
42119;BMP280;27783;42.782;23.274;2023-05-07T09:15:04;95650.63;;;25.51
42119;BMP280;27783;42.782;23.274;2023-05-07T09:17:30;95646.56;;;25.41
42119;BMP280;27783;42.782;23.274;2023-05-07T09:20:06;95644.44;;;24.50
42119;BMP280;27783;42.782;23.274;2023-05-07T09:22:33;95638.88;;;26.42
42119;BMP280;27783;42.782;23.274;2023-05-07T09:24:58;95648.63;;;24.79
42119;BMP280;27783;42.782;23.274;2023-05-07T09:27:25;95646.56;;;25.07
42119;BMP280;27783;42.782;23.274;2023-05-07T09:29:50;95645.44;;;24.80
42119;BMP280;27783;42.782;23.274;2023-05-07T09:32:16;95637.81;;;27.35
42119;BMP280;27783;42.782;23.274;2023-05-07T09:34:42;95642.13;;;25.38
42119;BMP280;27783;42.782;23.274;2023-05-07T09:37:07;95625.59;;;26.44
42119;BMP280;27783;42.782;23.274;2023-05-07T09:42:06;95626.78;;;26.98
42119;BMP280;27783;42.782;23.274;2023-05-07T09:44:32;95634.75;;;24.86
42119;BMP280;27783;42.782;23.274;2023-05-07T09:46:59;95620.44;;;24.99
42119;BMP280;27783;42.782;23.274;2023-05-07T09:49:29;95624.91;;;25.02
42119;BMP280;27783;42.782;23.274;2023-05-07T09:52:00;95620.91;;;25.70
42119;BMP280;27783;42.782;23.274;2023-05-07T09:54:35;95608.16;;;27.10
42119;BMP280;27783;42.782;23.274;2023-05-07T09:57:04;95601.75;;;26.78
42119;BMP280;27783;42.782;23.274;2023-05-07T09:59:38;95609.97;;;26.28
42119;BMP280;27783;42.782;23.274;2023-05-07T10:02:06;95595.16;;;27.76
42119;BMP280;27783;42.782;23.274;2023-05-07T10:04:34;95598.56;;;27.15
42119;BMP280;27783;42.782;23.274;2023-05-07T10:07:00;95602.13;;;26.60
42119;BMP280;27783;42.782;23.274;2023-05-07T10:09:28;95595.69;;;26.53
42119;BMP280;27783;42.782;23.274;2023-05-07T10:11:56;95595.16;;;26.49
42119;BMP280;27783;42.782;23.274;2023-05-07T10:14:23;95597.44;;;26.01
42119;BMP280;27783;42.782;23.274;2023-05-07T10:16:52;95590.72;;;26.46
42119;BMP280;27783;42.782;23.274;2023-05-07T10:19:21;95586.91;;;26.63
42119;BMP280;27783;42.782;23.274;2023-05-07T10:21:52;95584.28;;;26.74
42119;BMP280;27783;42.782;23.274;2023-05-07T10:24:29;95580.56;;;26.71
42119;BMP280;27783;42.782;23.274;2023-05-07T10:27:10;95579.22;;;26.91
42119;BMP280;27783;42.782;23.274;2023-05-07T10:32:51;95570.22;;;27.57
42119;BMP280;27783;42.782;23.274;2023-05-07T10:35:24;95557.97;;;27.72
42119;BMP280;27783;42.782;23.274;2023-05-07T10:37:51;95547.06;;;29.16
42119;BMP280;27783;42.782;23.274;2023-05-07T10:40:17;95565.19;;;26.88
42119;BMP280;27783;42.782;23.274;2023-05-07T10:43:04;95557.47;;;27.16
42119;BMP280;27783;42.782;23.274;2023-05-07T10:45:33;95561.94;;;26.43
42119;BMP280;27783;42.782;23.274;2023-05-07T10:48:16;95552.06;;;27.84
42119;BMP280;27783;42.782;23.274;2023-05-07T10:50:45;95559.59;;;26.96
42119;BMP280;27783;42.782;23.274;2023-05-07T10:53:21;95547.16;;;27.20
42119;BMP280;27783;42.782;23.274;2023-05-07T10:56:25;95545.75;;;26.48
42119;BMP280;27783;42.782;23.274;2023-05-07T10:58:51;95562.34;;;26.06
42119;BMP280;27783;42.782;23.274;2023-05-07T11:01:53;95550.78;;;27.01
42119;BMP280;27783;42.782;23.274;2023-05-07T11:04:32;95540.22;;;27.08
42119;BMP280;27783;42.782;23.274;2023-05-07T11:09:54;95537.63;;;27.35
42119;BMP280;27783;42.782;23.274;2023-05-07T11:15:13;95533.84;;;28.75
42119;BMP280;27783;42.782;23.274;2023-05-07T11:17:57;95524.25;;;28.53
42119;BMP280;27783;42.782;23.274;2023-05-07T11:20:50;95537.56;;;26.73
42119;BMP280;27783;42.782;23.274;2023-05-07T11:26:04;95517.88;;;28.24
42119;BMP280;27783;42.782;23.274;2023-05-07T11:28:33;95523.50;;;28.42
42119;BMP280;27783;42.782;23.274;2023-05-07T11:31:02;95513.84;;;29.94
42119;BMP280;27783;42.782;23.274;2023-05-07T11:33:37;95516.16;;;29.74
42119;BMP280;27783;42.782;23.274;2023-05-07T11:36:03;95517.81;;;28.82
42119;BMP280;27783;42.782;23.274;2023-05-07T11:38:36;95509.56;;;29.09
42119;BMP280;27783;42.782;23.274;2023-05-07T11:41:04;95512.13;;;28.75
42119;BMP280;27783;42.782;23.274;2023-05-07T11:43:34;95510.94;;;28.49
42119;BMP280;27783;42.782;23.274;2023-05-07T11:46:11;95505.56;;;29.31
42119;BMP280;27783;42.782;23.274;2023-05-07T11:48:38;95522.41;;;26.51
42119;BMP280;27783;42.782;23.274;2023-05-07T11:51:08;95510.66;;;27.62
42119;BMP280;27783;42.782;23.274;2023-05-07T11:53:41;95514.59;;;27.56
42119;BMP280;27783;42.782;23.274;2023-05-07T11:56:09;95507.97;;;28.10
42119;BMP280;27783;42.782;23.274;2023-05-07T11:58:36;95503.50;;;29.48
42119;BMP280;27783;42.782;23.274;2023-05-07T12:01:03;95519.91;;;26.42
42119;BMP280;27783;42.782;23.274;2023-05-07T12:03:28;95510.81;;;26.15
42119;BMP280;27783;42.782;23.274;2023-05-07T12:05:54;95508.72;;;26.59
42119;BMP280;27783;42.782;23.274;2023-05-07T12:08:22;95507.94;;;27.67
42119;BMP280;27783;42.782;23.274;2023-05-07T12:10:48;95497.91;;;28.16
42119;BMP280;27783;42.782;23.274;2023-05-07T12:13:35;95494.41;;;28.74
42119;BMP280;27783;42.782;23.274;2023-05-07T12:16:01;95491.72;;;28.15
42119;BMP280;27783;42.782;23.274;2023-05-07T12:18:49;95488.84;;;27.19
42119;BMP280;27783;42.782;23.274;2023-05-07T12:21:16;95493.66;;;27.67
42119;BMP280;27783;42.782;23.274;2023-05-07T12:23:42;95478.66;;;29.23
42119;BMP280;27783;42.782;23.274;2023-05-07T12:26:09;95476.19;;;29.30
42119;BMP280;27783;42.782;23.274;2023-05-07T12:28:39;95465.72;;;29.44
42119;BMP280;27783;42.782;23.274;2023-05-07T12:31:25;95481.63;;;28.37
42119;BMP280;27783;42.782;23.274;2023-05-07T12:33:52;95474.13;;;27.36
42119;BMP280;27783;42.782;23.274;2023-05-07T12:36:17;95466.09;;;28.38
42119;BMP280;27783;42.782;23.274;2023-05-07T12:38:42;95471.50;;;28.32
42119;BMP280;27783;42.782;23.274;2023-05-07T12:41:10;95461.75;;;28.95
42119;BMP280;27783;42.782;23.274;2023-05-07T12:43:47;95456.66;;;28.71
42119;BMP280;27783;42.782;23.274;2023-05-07T12:46:13;95448.53;;;29.65
42119;BMP280;27783;42.782;23.274;2023-05-07T12:48:49;95449.81;;;28.38
42119;BMP280;27783;42.782;23.274;2023-05-07T12:51:16;95434.13;;;30.10
42119;BMP280;27783;42.782;23.274;2023-05-07T12:53:42;95427.88;;;29.52
42119;BMP280;27783;42.782;23.274;2023-05-07T12:56:09;95436.41;;;26.55
42119;BMP280;27783;42.782;23.274;2023-05-07T12:58:35;95426.66;;;27.73
42119;BMP280;27783;42.782;23.274;2023-05-07T13:01:06;95425.81;;;28.68
42119;BMP280;27783;42.782;23.274;2023-05-07T13:03:47;95422.94;;;28.29
42119;BMP280;27783;42.782;23.274;2023-05-07T13:06:14;95414.47;;;30.22
42119;BMP280;27783;42.782;23.274;2023-05-07T13:08:44;95418.63;;;29.31
42119;BMP280;27783;42.782;23.274;2023-05-07T13:11:12;95425.38;;;28.54
42119;BMP280;27783;42.782;23.274;2023-05-07T13:13:38;95421.00;;;29.01
42119;BMP280;27783;42.782;23.274;2023-05-07T13:16:06;95425.19;;;27.82
42119;BMP280;27783;42.782;23.274;2023-05-07T13:18:35;95414.72;;;29.22
42119;BMP280;27783;42.782;23.274;2023-05-07T13:21:02;95410.50;;;29.31
42119;BMP280;27783;42.782;23.274;2023-05-07T13:23:30;95422.72;;;27.74
42119;BMP280;27783;42.782;23.274;2023-05-07T13:26:00;95422.00;;;28.16
42119;BMP280;27783;42.782;23.274;2023-05-07T13:28:28;95411.38;;;28.34
42119;BMP280;27783;42.782;23.274;2023-05-07T13:30:54;95404.75;;;27.97
42119;BMP280;27783;42.782;23.274;2023-05-07T13:33:20;95401.28;;;27.75
42119;BMP280;27783;42.782;23.274;2023-05-07T13:35:45;95402.84;;;28.80
42119;BMP280;27783;42.782;23.274;2023-05-07T13:38:36;95401.78;;;28.17
42119;BMP280;27783;42.782;23.274;2023-05-07T13:41:02;95394.00;;;28.69
42119;BMP280;27783;42.782;23.274;2023-05-07T13:43:29;95394.00;;;29.19
42119;BMP280;27783;42.782;23.274;2023-05-07T13:45:54;95400.69;;;28.52
42119;BMP280;27783;42.782;23.274;2023-05-07T13:48:21;95402.06;;;28.90
42119;BMP280;27783;42.782;23.274;2023-05-07T13:50:48;95408.69;;;27.70
42119;BMP280;27783;42.782;23.274;2023-05-07T13:53:15;95409.47;;;28.84
42119;BMP280;27783;42.782;23.274;2023-05-07T13:55:44;95408.19;;;27.87
42119;BMP280;27783;42.782;23.274;2023-05-07T13:58:10;95399.69;;;28.55
42119;BMP280;27783;42.782;23.274;2023-05-07T14:00:37;95406.22;;;28.20
42119;BMP280;27783;42.782;23.274;2023-05-07T14:03:04;95403.03;;;27.78
42119;BMP280;27783;42.782;23.274;2023-05-07T14:05:35;95408.22;;;27.71
42119;BMP280;27783;42.782;23.274;2023-05-07T14:08:03;95413.81;;;27.30
42119;BMP280;27783;42.782;23.274;2023-05-07T14:10:30;95405.03;;;26.73
42119;BMP280;27783;42.782;23.274;2023-05-07T14:12:57;95403.03;;;27.73
42119;BMP280;27783;42.782;23.274;2023-05-07T14:15:25;95404.00;;;27.86
42119;BMP280;27783;42.782;23.274;2023-05-07T14:17:51;95409.00;;;26.88
42119;BMP280;27783;42.782;23.274;2023-05-07T14:20:16;95408.69;;;27.86
42119;BMP280;27783;42.782;23.274;2023-05-07T14:22:41;95405.00;;;27.67
42119;BMP280;27783;42.782;23.274;2023-05-07T14:25:08;95397.22;;;28.62